Time;durP1;ratioP1;P1;durP2;ratioP2;P2;SDS_P1;SDS_P2;PMS_P1;PMS_P2;Temp;Humidity;BMP_temperature;BMP_pressure;BME280_temperature;BME280_humidity;BME280_pressure;Samples;Min_cycle;Max_cycle;Signal;HPM_P1;HPM_P2
2024/02/22 00:00:29;;;;;;;10.30;6.75;;;;;;;;;;2068768;28;20033;-64
2024/02/22 00:01:48;;;;;;;11.63;6.22;;;;;;;;;;2069549;28;20503;-64
2024/02/22 00:03:07;;;;;;;10.75;5.93;;;;;;;;;;2072238;28;20030;-63
2024/02/22 00:04:26;;;;;;;9.80;5.35;;;;;;;;;;2067543;28;20391;-63
2024/02/22 00:05:45;;;;;;;8.45;5.28;;;;;;;;;;2069359;28;20065;-64
2024/02/22 00:07:04;;;;;;;3.65;3.05;;;;;;;;;;2069903;28;20518;-64
2024/02/22 00:08:23;;;;;;;6.28;3.90;;;;;;;;;;2071510;28;20038;-64
2024/02/22 00:09:42;;;;;;;2.88;2.53;;;;;;;;;;2072144;28;20033;-64
2024/02/22 00:11:01;;;;;;;1.98;1.85;;;;;;;;;;2071413;28;20113;-64
2024/02/22 00:12:20;;;;;;;2.33;2.10;;;;;;;;;;2069079;28;20404;-64
2024/02/22 00:13:39;;;;;;;3.03;2.72;;;;;;;;;;2070084;28;20042;-64
2024/02/22 00:14:58;;;;;;;3.97;3.45;;;;;;;;;;2073425;28;20036;-64
2024/02/22 00:16:17;;;;;;;3.42;2.80;;;;;;;;;;2070258;28;20427;-64
2024/02/22 00:17:36;;;;;;;3.92;2.75;;;;;;;;;;2071558;28;20034;-64
2024/02/22 00:18:55;;;;;;;4.60;3.55;;;;;;;;;;2069873;28;20030;-64
2024/02/22 00:20:16;;;;;;;4.05;3.65;;;;;;;;;;2070178;28;20034;-64
2024/02/22 00:21:35;;;;;;;3.67;3.05;;;;;;;;;;2067835;28;20038;-64
2024/02/22 00:22:54;;;;;;;4.78;3.70;;;;;;;;;;2070700;28;20030;-64
2024/02/22 00:24:13;;;;;;;2.47;2.28;;;;;;;;;;2070432;28;20032;-64
2024/02/22 00:25:32;;;;;;;2.05;1.92;;;;;;;;;;2069501;28;20038;-64
2024/02/22 00:26:51;;;;;;;2.50;2.30;;;;;;;;;;2069368;28;20031;-64
2024/02/22 00:28:10;;;;;;;1.92;1.83;;;;;;;;;;2069855;28;20037;-64
2024/02/22 00:29:29;;;;;;;1.52;1.42;;;;;;;;;;2071151;28;20035;-64
2024/02/22 00:30:48;;;;;;;1.65;1.55;;;;;;;;;;2071044;28;20026;-64
2024/02/22 00:32:09;;;;;;;2.22;2.03;;;;;;;;;;2068541;28;20033;-64
2024/02/22 00:33:27;;;;;;;2.17;1.90;;;;;;;;;;2069967;28;20496;-64
2024/02/22 00:34:46;;;;;;;2.13;2.03;;;;;;;;;;2070089;28;20507;-64
2024/02/22 00:36:05;;;;;;;2.53;2.33;;;;;;;;;;2066061;28;20512;-65
2024/02/22 00:37:25;;;;;;;1.63;1.52;;;;;;;;;;2070437;28;20030;-64
2024/02/22 00:38:45;;;;;;;2.63;1.88;;;;;;;;;;2069137;28;20038;-64
2024/02/22 00:40:04;;;;;;;1.95;1.85;;;;;;;;;;2068691;28;20034;-67
2024/02/22 00:41:23;;;;;;;2.08;1.98;;;;;;;;;;2070398;28;20037;-64
2024/02/22 00:42:42;;;;;;;1.92;1.83;;;;;;;;;;2070380;28;20034;-64
2024/02/22 00:44:00;;;;;;;2.80;2.13;;;;;;;;;;2069236;28;20030;-64
2024/02/22 00:45:20;;;;;;;2.67;2.47;;;;;;;;;;2068324;28;20037;-64
2024/02/22 00:46:39;;;;;;;2.55;2.35;;;;;;;;;;2070343;28;20058;-64
2024/02/22 00:47:58;;;;;;;2.40;2.20;;;;;;;;;;2069810;28;20045;-64
2024/02/22 00:49:17;;;;;;;1.85;1.70;;;;;;;;;;2070884;28;20039;-64
2024/02/22 00:50:36;;;;;;;2.35;2.15;;;;;;;;;;2068823;28;20026;-64
2024/02/22 00:51:55;;;;;;;2.35;2.15;;;;;;;;;;2069030;28;20033;-64
2024/02/22 00:53:16;;;;;;;2.42;2.20;;;;;;;;;;2069352;28;20061;-64
2024/02/22 00:54:35;;;;;;;2.30;2.10;;;;;;;;;;2069345;28;20030;-64
2024/02/22 00:55:54;;;;;;;2.83;2.50;;;;;;;;;;2069170;28;20076;-64
2024/02/22 00:57:13;;;;;;;2.53;2.10;;;;;;;;;;2068485;28;20031;-64
2024/02/22 00:58:32;;;;;;;2.45;2.25;;;;;;;;;;2069398;28;20030;-64
2024/02/22 00:59:51;;;;;;;1.98;1.88;;;;;;;;;;2071412;28;20034;-64
2024/02/22 01:01:10;;;;;;;2.38;2.17;;;;;;;;;;2068770;28;20451;-64
2024/02/22 01:02:29;;;;;;;2.40;2.20;;;;;;;;;;2069724;28;20492;-64
2024/02/22 01:03:48;;;;;;;2.83;2.63;;;;;;;;;;2069559;28;20577;-64
2024/02/22 01:05:07;;;;;;;3.85;2.97;;;;;;;;;;2062279;28;20042;-64
2024/02/22 01:06:26;;;;;;;3.33;3.03;;;;;;;;;;2071155;28;20034;-64
2024/02/22 01:07:45;;;;;;;3.10;2.90;;;;;;;;;;2069781;28;20038;-64
2024/02/22 01:09:04;;;;;;;3.17;2.97;;;;;;;;;;2068685;28;20038;-64
2024/02/22 01:10:23;;;;;;;3.53;3.22;;;;;;;;;;2066851;28;20026;-64
2024/02/22 01:11:42;;;;;;;2.95;2.75;;;;;;;;;;2069887;28;20034;-64
2024/02/22 01:13:01;;;;;;;3.38;3.08;;;;;;;;;;2069243;28;20026;-63
2024/02/22 01:14:20;;;;;;;3.40;3.20;;;;;;;;;;2068804;28;20475;-64
2024/02/22 01:15:39;;;;;;;3.88;3.58;;;;;;;;;;2068185;28;20669;-63
2024/02/22 01:16:58;;;;;;;4.80;3.67;;;;;;;;;;2066568;28;20018;-63
2024/02/22 01:18:17;;;;;;;4.03;3.47;;;;;;;;;;2066767;28;20070;-63
2024/02/22 01:19:36;;;;;;;3.10;2.90;;;;;;;;;;2070929;28;20026;-63
2024/02/22 01:20:55;;;;;;;3.70;3.40;;;;;;;;;;2064121;28;20043;-64
2024/02/22 01:22:13;;;;;;;4.13;3.78;;;;;;;;;;2071542;28;20122;-64
2024/02/22 01:23:32;;;;;;;4.78;4.38;;;;;;;;;;2070545;28;20024;-63
2024/02/22 01:24:51;;;;;;;3.83;3.53;;;;;;;;;;2067717;28;20121;-63
2024/02/22 01:26:10;;;;;;;3.80;3.50;;;;;;;;;;2070925;28;20022;-64
2024/02/22 01:27:29;;;;;;;3.38;3.17;;;;;;;;;;2070731;28;20033;-63
2024/02/22 01:28:49;;;;;;;3.47;3.28;;;;;;;;;;2071036;28;20109;-63
2024/02/22 01:30:09;;;;;;;3.15;2.95;;;;;;;;;;2069828;28;20093;-63
2024/02/22 01:31:28;;;;;;;3.15;2.90;;;;;;;;;;2070666;28;20042;-65
2024/02/22 01:32:47;;;;;;;3.17;2.97;;;;;;;;;;2067533;28;20569;-63
2024/02/22 01:34:06;;;;;;;3.35;3.05;;;;;;;;;;2070257;28;20109;-63
2024/02/22 01:35:26;;;;;;;3.10;2.90;;;;;;;;;;2069610;28;20022;-63
2024/02/22 01:36:45;;;;;;;2.92;2.72;;;;;;;;;;2068825;28;20062;-63
2024/02/22 01:38:04;;;;;;;2.42;2.28;;;;;;;;;;2068618;28;20030;-63
2024/02/22 01:39:23;;;;;;;2.33;2.22;;;;;;;;;;2069857;28;20510;-63
2024/02/22 01:40:42;;;;;;;1.98;1.88;;;;;;;;;;2069813;28;20038;-63
2024/02/22 01:42:01;;;;;;;2.08;1.98;;;;;;;;;;2068479;28;20037;-63
2024/02/22 01:43:20;;;;;;;2.13;2.03;;;;;;;;;;2068598;28;20038;-63
2024/02/22 01:44:38;;;;;;;2.25;1.88;;;;;;;;;;2068647;28;20034;-64
2024/02/22 01:45:57;;;;;;;2.25;2.00;;;;;;;;;;2067707;28;20034;-64
2024/02/22 01:47:17;;;;;;;2.40;2.20;;;;;;;;;;2065407;28;20117;-63
2024/02/22 01:48:36;;;;;;;2.80;2.60;;;;;;;;;;2067117;28;20034;-63
2024/02/22 01:49:54;;;;;;;3.10;2.90;;;;;;;;;;2066375;28;20034;-63
2024/02/22 01:51:14;;;;;;;2.55;2.42;;;;;;;;;;2071401;28;20038;-63
2024/02/22 01:52:33;;;;;;;2.42;2.22;;;;;;;;;;2070723;28;20706;-64
2024/02/22 01:53:53;;;;;;;2.20;2.10;;;;;;;;;;2069736;28;20034;-63
2024/02/22 01:55:13;;;;;;;2.50;2.35;;;;;;;;;;2068341;28;20033;-63
2024/02/22 01:56:32;;;;;;;2.33;2.22;;;;;;;;;;2069048;28;20034;-63
2024/02/22 01:57:52;;;;;;;2.63;2.47;;;;;;;;;;2070154;28;20061;-63
2024/02/22 01:59:11;;;;;;;2.40;2.20;;;;;;;;;;2068207;28;20039;-63
2024/02/22 02:00:31;;;;;;;2.60;2.40;;;;;;;;;;2068985;28;20499;-63
2024/02/22 02:01:54;;;;;;;2.45;2.30;;;;;;;;;;2068650;28;20038;-63
2024/02/22 02:03:13;;;;;;;2.90;2.60;;;;;;;;;;2068671;28;20549;-63
2024/02/22 02:04:33;;;;;;;2.53;2.20;;;;;;;;;;2070247;28;20050;-63
2024/02/22 02:05:53;;;;;;;2.67;2.47;;;;;;;;;;2068667;28;20156;-63
2024/02/22 02:07:11;;;;;;;3.30;3.00;;;;;;;;;;2066941;28;20062;-63
2024/02/22 02:08:30;;;;;;;3.10;2.90;;;;;;;;;;2069376;28;20125;-63
2024/02/22 02:09:49;;;;;;;3.13;2.60;;;;;;;;;;2069743;28;20131;-63
2024/02/22 02:11:09;;;;;;;2.97;2.40;;;;;;;;;;2069164;28;20034;-63
2024/02/22 02:12:28;;;;;;;3.20;3.00;;;;;;;;;;2067557;28;20030;-63
2024/02/22 02:13:47;;;;;;;2.88;2.67;;;;;;;;;;2067126;28;20034;-63
2024/02/22 02:15:06;;;;;;;2.55;2.40;;;;;;;;;;2069866;28;20101;-63
2024/02/22 02:16:25;;;;;;;4.18;2.60;;;;;;;;;;2070623;28;20022;-63
2024/02/22 02:17:44;;;;;;;2.75;2.55;;;;;;;;;;2070129;28;20391;-65
2024/02/22 02:19:07;;;;;;;3.35;3.15;;;;;;;;;;2068579;28;20034;-64
2024/02/22 02:20:27;;;;;;;3.17;2.90;;;;;;;;;;2068874;28;20042;-63
2024/02/22 02:22:10;;;;;;;4.43;3.40;;;;;;;;;;2068235;28;20767;-64
2024/02/22 02:23:47;;;;;;;3.22;2.90;;;;;;;;;;2068042;28;20499;-64
2024/02/22 02:25:08;;;;;;;3.30;3.10;;;;;;;;;;2064532;28;20054;-63
2024/02/22 02:26:27;;;;;;;2.88;2.67;;;;;;;;;;2070285;28;20065;-63
2024/02/22 02:27:46;;;;;;;2.75;2.50;;;;;;;;;;2069628;28;20395;-63
2024/02/22 02:29:05;;;;;;;2.58;2.38;;;;;;;;;;2067213;28;20042;-63
2024/02/22 02:30:25;;;;;;;3.17;2.90;;;;;;;;;;2068801;28;20034;-63
2024/02/22 02:31:44;;;;;;;2.92;2.63;;;;;;;;;;2069908;28;20030;-64
2024/02/22 02:33:03;;;;;;;4.10;2.75;;;;;;;;;;2069534;28;20034;-63
2024/02/22 02:34:21;;;;;;;2.95;2.75;;;;;;;;;;2068671;28;20030;-63
2024/02/22 02:35:40;;;;;;;3.13;2.92;;;;;;;;;;2070748;28;20451;-63
2024/02/22 02:36:59;;;;;;;3.53;3.22;;;;;;;;;;2066617;28;20384;-63
2024/02/22 02:38:18;;;;;;;3.45;2.63;;;;;;;;;;2067615;28;20033;-67
2024/02/22 02:39:37;;;;;;;2.40;2.20;;;;;;;;;;2068682;28;20541;-63
2024/02/22 02:40:56;;;;;;;2.40;2.22;;;;;;;;;;2068455;28;20062;-63
2024/02/22 02:42:15;;;;;;;2.60;2.40;;;;;;;;;;2069687;28;20389;-64
2024/02/22 02:43:34;;;;;;;2.50;2.30;;;;;;;;;;2068273;28;20490;-63
2024/02/22 02:44:53;;;;;;;2.30;1.88;;;;;;;;;;2068468;28;20054;-63
2024/02/22 02:46:12;;;;;;;3.15;1.98;;;;;;;;;;2069471;28;20424;-63
2024/02/22 02:47:33;;;;;;;1.90;1.80;;;;;;;;;;2068980;28;20041;-63
2024/02/22 02:48:52;;;;;;;2.05;1.85;;;;;;;;;;2068112;28;20034;-63
2024/02/22 02:50:11;;;;;;;1.90;1.80;;;;;;;;;;2069022;28;20395;-63
2024/02/22 02:51:31;;;;;;;1.85;1.50;;;;;;;;;;2066634;28;20031;-64
2024/02/22 02:52:51;;;;;;;1.92;1.83;;;;;;;;;;2068751;28;20030;-63
2024/02/22 02:54:09;;;;;;;2.35;1.13;;;;;;;;;;2068001;28;20037;-63
2024/02/22 02:55:28;;;;;;;1.95;1.75;;;;;;;;;;2068368;28;20034;-64
2024/02/22 02:56:47;;;;;;;1.50;1.40;;;;;;;;;;2068275;28;20061;-64
2024/02/22 02:58:08;;;;;;;1.90;1.80;;;;;;;;;;2120576;27;20555;-63
2024/02/22 02:59:27;;;;;;;2.20;2.10;;;;;;;;;;2090715;27;20113;-63
2024/02/22 03:00:46;;;;;;;1.92;1.83;;;;;;;;;;2071517;28;20034;-63
2024/02/22 03:02:05;;;;;;;1.50;1.40;;;;;;;;;;2070370;28;20109;-63
2024/02/22 03:03:24;;;;;;;1.95;1.60;;;;;;;;;;2069718;28;20382;-63
2024/02/22 03:04:43;;;;;;;1.70;1.60;;;;;;;;;;2070880;28;20034;-63
2024/02/22 03:06:02;;;;;;;1.60;1.50;;;;;;;;;;2068562;28;20105;-64
2024/02/22 03:07:21;;;;;;;1.90;1.80;;;;;;;;;;2071400;28;20042;-63
2024/02/22 03:08:40;;;;;;;2.20;2.10;;;;;;;;;;2070750;28;21289;-63
2024/02/22 03:09:59;;;;;;;2.10;2.00;;;;;;;;;;2072088;28;20038;-63
2024/02/22 03:11:19;;;;;;;2.20;2.10;;;;;;;;;;2070778;28;20156;-64
2024/02/22 03:12:38;;;;;;;2.22;2.13;;;;;;;;;;2070279;28;20026;-63
2024/02/22 03:13:56;;;;;;;2.28;2.17;;;;;;;;;;2069677;28;20062;-63
2024/02/22 03:15:15;;;;;;;2.45;2.25;;;;;;;;;;2067741;28;20046;-63
2024/02/22 03:16:37;;;;;;;3.15;2.95;;;;;;;;;;2072300;28;20033;-63
2024/02/22 03:17:56;;;;;;;2.60;2.50;;;;;;;;;;2071153;28;20022;-63
2024/02/22 03:19:15;;;;;;;2.72;2.53;;;;;;;;;;2070952;28;20526;-63
2024/02/22 03:20:34;;;;;;;2.72;2.53;;;;;;;;;;2070369;28;20050;-62
2024/02/22 03:21:54;;;;;;;3.60;3.30;;;;;;;;;;2071598;28;20038;-63
2024/02/22 03:23:13;;;;;;;2.80;2.60;;;;;;;;;;2070845;28;20445;-62
2024/02/22 03:24:32;;;;;;;3.08;2.88;;;;;;;;;;2070652;28;20445;-63
2024/02/22 03:25:51;;;;;;;3.15;2.85;;;;;;;;;;2070195;28;20048;-63
2024/02/22 03:27:10;;;;;;;3.08;2.88;;;;;;;;;;2070213;28;20504;-64
2024/02/22 03:28:30;;;;;;;3.30;3.10;;;;;;;;;;2069399;28;20124;-63
2024/02/22 03:29:48;;;;;;;4.15;3.83;;;;;;;;;;2068061;28;20038;-64
2024/02/22 03:31:07;;;;;;;3.17;2.97;;;;;;;;;;2069536;28;20034;-63
2024/02/22 03:32:26;;;;;;;3.63;3.33;;;;;;;;;;2066746;28;20030;-64
2024/02/22 03:33:45;;;;;;;4.30;4.00;;;;;;;;;;2068370;28;20022;-63
2024/02/22 03:35:05;;;;;;;4.05;3.75;;;;;;;;;;2068403;28;20069;-63
2024/02/22 03:36:24;;;;;;;3.85;3.60;;;;;;;;;;2069864;28;20035;-63
2024/02/22 03:37:43;;;;;;;3.72;3.53;;;;;;;;;;2073304;28;20031;-64
2024/02/22 03:39:04;;;;;;;3.65;3.40;;;;;;;;;;2072756;28;20038;-63
2024/02/22 03:40:23;;;;;;;3.85;3.55;;;;;;;;;;2071270;28;20143;-63
2024/02/22 03:41:42;;;;;;;3.78;3.47;;;;;;;;;;2070799;28;20034;-63
2024/02/22 03:43:02;;;;;;;3.08;2.88;;;;;;;;;;2070349;28;20030;-63
2024/02/22 03:44:21;;;;;;;3.70;3.40;;;;;;;;;;2069773;28;20034;-63
2024/02/22 03:45:40;;;;;;;3.25;3.05;;;;;;;;;;2069349;28;20037;-63
2024/02/22 03:46:59;;;;;;;3.13;2.92;;;;;;;;;;2072039;28;20034;-63
2024/02/22 03:48:18;;;;;;;4.05;3.65;;;;;;;;;;2069514;28;20049;-63
2024/02/22 03:49:37;;;;;;;3.60;3.40;;;;;;;;;;2072400;28;20026;-63
2024/02/22 03:50:56;;;;;;;4.30;3.90;;;;;;;;;;2067004;28;20046;-63
2024/02/22 03:52:15;;;;;;;4.35;4.00;;;;;;;;;;2070307;28;20026;-63
2024/02/22 03:53:34;;;;;;;4.03;3.72;;;;;;;;;;2067917;28;20434;-63
2024/02/22 03:54:53;;;;;;;4.47;4.18;;;;;;;;;;2069304;28;20030;-63
2024/02/22 03:56:12;;;;;;;4.85;4.38;;;;;;;;;;2073039;28;20034;-63
2024/02/22 03:57:31;;;;;;;4.50;4.13;;;;;;;;;;2070147;28;20092;-63
2024/02/22 03:58:51;;;;;;;5.07;4.57;;;;;;;;;;2069080;28;20436;-63
2024/02/22 04:00:10;;;;;;;4.65;4.25;;;;;;;;;;2069570;28;20033;-64
2024/02/22 04:01:30;;;;;;;5.28;4.78;;;;;;;;;;2071614;28;20494;-63
2024/02/22 04:02:50;;;;;;;5.07;4.68;;;;;;;;;;2069679;28;20494;-63
2024/02/22 04:04:09;;;;;;;4.90;4.47;;;;;;;;;;2069816;28;20148;-63
2024/02/22 04:05:28;;;;;;;4.47;4.18;;;;;;;;;;2068977;28;20168;-63
2024/02/22 04:06:47;;;;;;;4.93;4.40;;;;;;;;;;2068857;28;20057;-64
2024/02/22 04:08:06;;;;;;;4.30;4.00;;;;;;;;;;2068933;28;20068;-63
2024/02/22 04:09:25;;;;;;;4.80;4.40;;;;;;;;;;2070524;28;20022;-64
2024/02/22 04:10:44;;;;;;;4.50;4.03;;;;;;;;;;2067265;28;20030;-63
2024/02/22 04:12:03;;;;;;;4.63;4.32;;;;;;;;;;2068852;28;20034;-63
2024/02/22 04:13:22;;;;;;;4.45;4.15;;;;;;;;;;2070700;28;20038;-63
2024/02/22 04:14:41;;;;;;;4.43;4.03;;;;;;;;;;2069215;28;20034;-63
2024/02/22 04:15:59;;;;;;;4.07;3.75;;;;;;;;;;2069633;28;20022;-63
2024/02/22 04:17:18;;;;;;;4.63;4.30;;;;;;;;;;2070526;28;20034;-63
2024/02/22 04:18:37;;;;;;;3.97;3.67;;;;;;;;;;2070564;28;20491;-63
2024/02/22 04:19:56;;;;;;;4.10;3.80;;;;;;;;;;2071124;28;20030;-64
2024/02/22 04:21:16;;;;;;;4.10;3.80;;;;;;;;;;2070138;28;20034;-63
2024/02/22 04:22:46;;;;;;;4.38;3.97;;;;;;;;;;2071099;28;20033;-63
2024/02/22 04:24:05;;;;;;;4.57;4.22;;;;;;;;;;2118219;27;20046;-63
2024/02/22 04:25:24;;;;;;;4.25;3.95;;;;;;;;;;2086739;28;20030;-63
2024/02/22 04:26:54;;;;;;;3.72;3.53;;;;;;;;;;2067808;28;20038;-63
2024/02/22 04:28:17;;;;;;;4.00;3.70;;;;;;;;;;2068235;28;20066;-63
2024/02/22 04:29:36;;;;;;;4.20;3.90;;;;;;;;;;2070389;28;20026;-63
2024/02/22 04:30:55;;;;;;;4.70;4.30;;;;;;;;;;2069738;28;20034;-63
2024/02/22 04:32:14;;;;;;;4.63;4.22;;;;;;;;;;2070401;28;20026;-64
2024/02/22 04:33:33;;;;;;;4.47;4.18;;;;;;;;;;2072516;28;20026;-62
2024/02/22 04:34:53;;;;;;;4.75;4.35;;;;;;;;;;2068109;28;20030;-63
2024/02/22 04:36:13;;;;;;;5.03;4.63;;;;;;;;;;2069253;28;20042;-63
2024/02/22 04:37:32;;;;;;;4.88;4.47;;;;;;;;;;2071221;28;20117;-63
2024/02/22 04:38:54;;;;;;;5.60;4.30;;;;;;;;;;2069868;28;20239;-63
2024/02/22 04:40:13;;;;;;;4.93;4.53;;;;;;;;;;2069314;28;20030;-64
2024/02/22 04:41:32;;;;;;;4.50;4.18;;;;;;;;;;2066229;28;20038;-63
2024/02/22 04:42:53;;;;;;;4.72;4.32;;;;;;;;;;2068156;28;20030;-63
2024/02/22 04:44:12;;;;;;;4.82;4.45;;;;;;;;;;2070315;28;20038;-66
2024/02/22 04:45:31;;;;;;;4.63;4.32;;;;;;;;;;2068452;28;20486;-63
2024/02/22 04:46:51;;;;;;;5.75;4.47;;;;;;;;;;2069309;28;20038;-63
2024/02/22 04:48:09;;;;;;;5.22;4.82;;;;;;;;;;2067054;28;20042;-65
2024/02/22 04:49:28;;;;;;;5.20;4.80;;;;;;;;;;2070131;28;20510;-64
2024/02/22 04:50:48;;;;;;;5.00;4.60;;;;;;;;;;2068367;28;20029;-63
2024/02/22 04:52:07;;;;;;;5.65;5.15;;;;;;;;;;2070179;28;20026;-63
2024/02/22 04:53:28;;;;;;;5.70;5.30;;;;;;;;;;2065781;28;21342;-63
2024/02/22 04:54:46;;;;;;;5.50;5.05;;;;;;;;;;2066759;28;20027;-63
2024/02/22 04:56:05;;;;;;;5.88;5.38;;;;;;;;;;2068748;28;20030;-63
2024/02/22 04:57:24;;;;;;;5.47;5.07;;;;;;;;;;2068952;28;20490;-63
2024/02/22 04:58:43;;;;;;;5.90;5.40;;;;;;;;;;2069601;28;20136;-63
2024/02/22 05:00:05;;;;;;;5.45;4.95;;;;;;;;;;2067288;28;20038;-63
2024/02/22 05:01:24;;;;;;;5.60;5.10;;;;;;;;;;2067504;28;20034;-63
2024/02/22 05:02:43;;;;;;;5.57;5.07;;;;;;;;;;2068502;28;20396;-64
2024/02/22 05:04:02;;;;;;;5.65;5.25;;;;;;;;;;2068157;28;20042;-63
2024/02/22 05:05:21;;;;;;;6.13;5.53;;;;;;;;;;2073823;28;20071;-63
2024/02/22 05:06:40;;;;;;;5.13;4.72;;;;;;;;;;2067548;28;20034;-63
2024/02/22 05:07:59;;;;;;;5.45;5.03;;;;;;;;;;2070079;28;20037;-63
2024/02/22 05:09:18;;;;;;;6.40;5.80;;;;;;;;;;2071628;28;20042;-63
2024/02/22 05:10:38;;;;;;;7.57;5.72;;;;;;;;;;2075205;28;20024;-63
2024/02/22 05:11:57;;;;;;;6.07;5.47;;;;;;;;;;2066797;28;20034;-63
2024/02/22 05:13:16;;;;;;;5.43;4.93;;;;;;;;;;2070046;28;20026;-64
2024/02/22 05:14:35;;;;;;;5.97;5.45;;;;;;;;;;2070217;28;20070;-64
2024/02/22 05:15:54;;;;;;;6.25;5.75;;;;;;;;;;2071131;28;20061;-63
2024/02/22 05:17:13;;;;;;;5.65;5.13;;;;;;;;;;2068665;28;20030;-63
2024/02/22 05:18:32;;;;;;;5.88;5.38;;;;;;;;;;2066710;28;20043;-63
2024/02/22 05:19:51;;;;;;;5.97;5.47;;;;;;;;;;2072413;28;20509;-64
2024/02/22 05:21:10;;;;;;;6.07;5.57;;;;;;;;;;2072488;28;20025;-63
2024/02/22 05:22:30;;;;;;;5.22;4.82;;;;;;;;;;2074602;28;20065;-64
2024/02/22 05:23:49;;;;;;;6.15;5.55;;;;;;;;;;2067245;28;20038;-63
2024/02/22 05:25:09;;;;;;;7.40;6.32;;;;;;;;;;2067371;28;20117;-64
2024/02/22 05:26:28;;;;;;;7.40;5.63;;;;;;;;;;2071605;28;20038;-63
2024/02/22 05:27:47;;;;;;;8.63;5.93;;;;;;;;;;2071486;28;20072;-64
2024/02/22 05:29:07;;;;;;;6.38;5.78;;;;;;;;;;2068683;28;20045;-63
2024/02/22 05:30:26;;;;;;;6.57;5.97;;;;;;;;;;2071914;28;20031;-65
2024/02/22 05:31:45;;;;;;;6.95;6.28;;;;;;;;;;2069074;28;20027;-64
2024/02/22 05:33:05;;;;;;;7.28;6.68;;;;;;;;;;2068961;28;20030;-64
2024/02/22 05:34:27;;;;;;;6.90;6.20;;;;;;;;;;2070338;28;20030;-64
2024/02/22 05:35:46;;;;;;;7.00;6.30;;;;;;;;;;2073779;28;20037;-64
2024/02/22 05:37:09;;;;;;;8.82;7.30;;;;;;;;;;2070141;28;20500;-64
2024/02/22 05:38:27;;;;;;;7.50;6.13;;;;;;;;;;2071021;28;20034;-64
2024/02/22 05:39:46;;;;;;;9.00;6.82;;;;;;;;;;2069059;28;20061;-64
2024/02/22 05:41:05;;;;;;;7.13;6.53;;;;;;;;;;2070876;28;20046;-64
2024/02/22 05:42:24;;;;;;;7.55;6.63;;;;;;;;;;2069286;28;20030;-64
2024/02/22 05:43:43;;;;;;;8.35;7.50;;;;;;;;;;2063760;28;20037;-67
2024/02/22 05:45:03;;;;;;;8.25;6.65;;;;;;;;;;2065267;28;20037;-65
2024/02/22 05:46:22;;;;;;;7.95;7.10;;;;;;;;;;2070384;28;20433;-64
2024/02/22 05:47:41;;;;;;;7.93;7.10;;;;;;;;;;2069510;28;20085;-64
2024/02/22 05:49:00;;;;;;;13.57;7.38;;;;;;;;;;2070805;28;20026;-64
2024/02/22 05:50:19;;;;;;;7.72;6.95;;;;;;;;;;2069464;28;20125;-64
2024/02/22 05:51:38;;;;;;;8.57;7.22;;;;;;;;;;2067706;28;20038;-64
2024/02/22 05:52:57;;;;;;;8.90;7.78;;;;;;;;;;2066521;28;20499;-64
2024/02/22 05:54:17;;;;;;;7.40;6.70;;;;;;;;;;2072068;28;20139;-64
2024/02/22 05:55:36;;;;;;;8.52;7.63;;;;;;;;;;2070773;28;20064;-64
2024/02/22 05:56:55;;;;;;;7.57;6.85;;;;;;;;;;2068978;28;20034;-64
2024/02/22 05:58:16;;;;;;;8.75;7.82;;;;;;;;;;2067142;28;20407;-64
2024/02/22 05:59:35;;;;;;;8.63;7.28;;;;;;;;;;2070275;28;20042;-64
2024/02/22 06:00:54;;;;;;;8.68;7.22;;;;;;;;;;2068228;28;20026;-64
2024/02/22 06:02:13;;;;;;;10.63;7.65;;;;;;;;;;2069478;28;20035;-65
2024/02/22 06:03:32;;;;;;;9.23;7.57;;;;;;;;;;2070936;28;20064;-64
2024/02/22 06:04:51;;;;;;;8.32;7.40;;;;;;;;;;2068181;28;20025;-64
2024/02/22 06:06:11;;;;;;;8.43;6.75;;;;;;;;;;2070623;28;20039;-64
2024/02/22 06:07:30;;;;;;;9.82;7.13;;;;;;;;;;2069056;28;20030;-64
2024/02/22 06:08:49;;;;;;;9.05;7.25;;;;;;;;;;2069455;28;20037;-64
2024/02/22 06:10:10;;;;;;;8.05;6.95;;;;;;;;;;2070207;28;20061;-64
2024/02/22 06:11:29;;;;;;;9.52;7.65;;;;;;;;;;2075001;28;20034;-64
2024/02/22 06:12:48;;;;;;;8.75;7.25;;;;;;;;;;2069396;28;20445;-64
2024/02/22 06:14:08;;;;;;;8.50;7.18;;;;;;;;;;2069975;28;20030;-66
2024/02/22 06:15:27;;;;;;;8.80;7.57;;;;;;;;;;2070971;28;20121;-64
2024/02/22 06:16:46;;;;;;;9.13;7.13;;;;;;;;;;2070010;28;20034;-64
2024/02/22 06:18:05;;;;;;;11.70;7.68;;;;;;;;;;2069324;28;20030;-64
2024/02/22 06:19:24;;;;;;;8.23;7.35;;;;;;;;;;2071223;28;20120;-64
2024/02/22 06:20:43;;;;;;;8.82;6.80;;;;;;;;;;2070086;28;20039;-64
2024/02/22 06:22:01;;;;;;;9.18;6.55;;;;;;;;;;2071117;28;20034;-64
2024/02/22 06:23:20;;;;;;;10.02;7.65;;;;;;;;;;2070166;28;20500;-64
2024/02/22 06:24:39;;;;;;;10.68;7.78;;;;;;;;;;2070873;28;20041;-64
2024/02/22 06:25:58;;;;;;;7.95;6.60;;;;;;;;;;2067762;28;20131;-64
2024/02/22 06:27:17;;;;;;;10.68;7.07;;;;;;;;;;2068716;28;20027;-64
2024/02/22 06:28:37;;;;;;;9.60;7.40;;;;;;;;;;2070649;28;20037;-64
2024/02/22 06:29:56;;;;;;;8.15;6.97;;;;;;;;;;2071975;28;20054;-64
2024/02/22 06:31:16;;;;;;;7.75;6.95;;;;;;;;;;2063724;28;20038;-64
2024/02/22 06:32:35;;;;;;;8.57;6.45;;;;;;;;;;2066590;28;20027;-64
2024/02/22 06:33:54;;;;;;;9.45;7.30;;;;;;;;;;2068057;28;20042;-64
2024/02/22 06:35:13;;;;;;;7.10;6.18;;;;;;;;;;2069200;28;20030;-64
2024/02/22 06:36:32;;;;;;;9.68;6.78;;;;;;;;;;2071273;28;20110;-64
2024/02/22 06:37:51;;;;;;;10.60;7.07;;;;;;;;;;2069603;28;20410;-64
2024/02/22 06:39:10;;;;;;;10.73;7.43;;;;;;;;;;2073603;28;20041;-64
2024/02/22 06:40:29;;;;;;;8.07;6.53;;;;;;;;;;2069739;28;20105;-64
2024/02/22 06:41:48;;;;;;;7.45;6.30;;;;;;;;;;2070227;28;20119;-64
2024/02/22 06:43:07;;;;;;;6.97;6.20;;;;;;;;;;2068659;28;20034;-64
2024/02/22 06:44:26;;;;;;;6.45;5.53;;;;;;;;;;2069649;28;20486;-64
2024/02/22 06:45:45;;;;;;;6.68;5.97;;;;;;;;;;2070200;28;20046;-64
2024/02/22 06:47:05;;;;;;;7.75;6.13;;;;;;;;;;2070045;28;20034;-64
2024/02/22 06:48:24;;;;;;;6.07;5.47;;;;;;;;;;2068617;28;20050;-64
2024/02/22 06:49:43;;;;;;;7.35;6.40;;;;;;;;;;2070361;28;20042;-64
2024/02/22 06:51:02;;;;;;;8.68;5.75;;;;;;;;;;2067963;28;20034;-65
2024/02/22 06:52:22;;;;;;;6.47;5.68;;;;;;;;;;2068933;28;20468;-64
2024/02/22 06:53:41;;;;;;;7.40;5.60;;;;;;;;;;2069265;28;20046;-64
2024/02/22 06:55:00;;;;;;;6.20;5.57;;;;;;;;;;2066898;28;20489;-64
2024/02/22 06:56:19;;;;;;;7.35;5.40;;;;;;;;;;2068639;28;20108;-64
2024/02/22 06:57:38;;;;;;;5.68;5.03;;;;;;;;;;2070153;28;20026;-64
2024/02/22 06:58:57;;;;;;;6.15;5.30;;;;;;;;;;2069561;28;20030;-64
2024/02/22 07:00:16;;;;;;;7.20;5.72;;;;;;;;;;2069572;28;20117;-64
2024/02/22 07:01:36;;;;;;;5.47;4.97;;;;;;;;;;2067402;28;20117;-64
2024/02/22 07:02:55;;;;;;;5.57;5.07;;;;;;;;;;2068608;28;20125;-70
2024/02/22 07:04:15;;;;;;;6.90;5.55;;;;;;;;;;2070459;28;20034;-65
2024/02/22 07:05:34;;;;;;;6.45;5.25;;;;;;;;;;2069978;28;20037;-64
2024/02/22 07:06:54;;;;;;;8.77;5.90;;;;;;;;;;2068560;28;20034;-64
2024/02/22 07:08:12;;;;;;;5.88;5.22;;;;;;;;;;2068117;28;20038;-64
2024/02/22 07:09:31;;;;;;;6.88;5.07;;;;;;;;;;2068138;28;20030;-64
2024/02/22 07:10:50;;;;;;;7.68;6.07;;;;;;;;;;2067842;28;20390;-64
2024/02/22 07:12:09;;;;;;;6.95;5.50;;;;;;;;;;2074601;28;20063;-64
2024/02/22 07:13:29;;;;;;;6.18;5.05;;;;;;;;;;2071609;28;20471;-64
2024/02/22 07:14:48;;;;;;;7.32;5.70;;;;;;;;;;2066313;28;20042;-64
2024/02/22 07:16:07;;;;;;;6.15;5.25;;;;;;;;;;2059224;28;20396;-64
2024/02/22 07:17:26;;;;;;;6.63;6.00;;;;;;;;;;2066297;28;20042;-64
2024/02/22 07:18:45;;;;;;;7.22;5.43;;;;;;;;;;2067144;28;20046;-64
2024/02/22 07:20:04;;;;;;;6.55;5.43;;;;;;;;;;2070938;28;20116;-64
2024/02/22 07:21:23;;;;;;;7.63;5.85;;;;;;;;;;2067675;28;20038;-64
2024/02/22 07:22:47;;;;;;;7.45;5.95;;;;;;;;;;2068607;28;20526;-64
2024/02/22 07:24:06;;;;;;;7.15;5.40;;;;;;;;;;2066962;28;20042;-64
2024/02/22 07:25:25;;;;;;;5.93;5.03;;;;;;;;;;2066114;28;20113;-65
2024/02/22 07:26:44;;;;;;;7.35;6.18;;;;;;;;;;2065723;28;20038;-64
2024/02/22 07:28:03;;;;;;;6.07;5.28;;;;;;;;;;2067900;28;20039;-65
2024/02/22 07:29:23;;;;;;;6.85;5.60;;;;;;;;;;2068990;28;20046;-64
2024/02/22 07:30:43;;;;;;;7.13;5.30;;;;;;;;;;2071205;28;20029;-64
2024/02/22 07:32:04;;;;;;;5.90;5.18;;;;;;;;;;2070904;28;20042;-64
2024/02/22 07:33:23;;;;;;;6.57;5.60;;;;;;;;;;2069949;28;20026;-64
2024/02/22 07:34:42;;;;;;;8.05;5.60;;;;;;;;;;2067529;28;20081;-64
2024/02/22 07:36:01;;;;;;;7.55;5.18;;;;;;;;;;2069544;28;20023;-64
2024/02/22 07:37:20;;;;;;;5.75;4.57;;;;;;;;;;2069505;28;20574;-65
2024/02/22 07:38:41;;;;;;;6.95;5.60;;;;;;;;;;2071305;28;20034;-64
2024/02/22 07:40:00;;;;;;;9.02;6.45;;;;;;;;;;2070666;28;20117;-64
2024/02/22 07:41:19;;;;;;;6.72;5.20;;;;;;;;;;2063467;28;20042;-64
2024/02/22 07:42:39;;;;;;;6.05;5.25;;;;;;;;;;2070260;28;20097;-64
2024/02/22 07:43:58;;;;;;;5.88;5.25;;;;;;;;;;2073546;28;20034;-64
2024/02/22 07:45:18;;;;;;;5.93;5.20;;;;;;;;;;2071860;28;20030;-64
2024/02/22 07:46:37;;;;;;;6.03;4.90;;;;;;;;;;2070872;28;20084;-65
2024/02/22 07:47:56;;;;;;;6.28;4.55;;;;;;;;;;2068546;28;20411;-64
2024/02/22 07:49:15;;;;;;;5.30;4.57;;;;;;;;;;2072312;28;20034;-64
2024/02/22 07:50:34;;;;;;;5.15;4.55;;;;;;;;;;2070394;28;20080;-64
2024/02/22 07:51:53;;;;;;;5.60;4.75;;;;;;;;;;2068533;28;20034;-64
2024/02/22 07:53:12;;;;;;;4.90;4.40;;;;;;;;;;2069198;28;20116;-64
2024/02/22 07:54:31;;;;;;;5.53;5.00;;;;;;;;;;2069733;28;20121;-64
2024/02/22 07:55:51;;;;;;;4.20;3.80;;;;;;;;;;2072915;28;20426;-64